Cresco, PA

8:35 PM EDT on September 04, 2015 (GMT -0400)
Dogwood Ln | | Change Station
CLOSE
Current Station
Personal Weather Station
Location: Canadensis, PA
Elevation: 1300 ft
Nearby Weather Stations

Elev 1300 ft 41.17 °N, 75.19 °W | Updated 9 seconds ago

Partly Cloudy
Partly Cloudy
70.9 °F
Feels Like 70.9 °F
N
0.0
Wind Variable Wind from ENE
Gusts 1.2 mph

Today
High -- | Low -- °F
--% Chance of Precip.
Yesterday
High -- | Low -- °F
Precip. -- in
6:30 AM 7:29 PM
Waning Gibbous, 54% visible
Pressure 30.20 in
Visibility 8.0 miles
Clouds Mostly Cloudy 1700 ft
Mostly Cloudy 2700 ft
Mostly Cloudy 3300 ft
Dew Point 66 °F
Humidity 86%
Rainfall 0.00 in
Snow Depth Not available.
UV 0 out of 12
Pollen 9.00 out of 12
Air Quality Not available.
Flu Activity Not available.
SPECI KMPO 050002Z AUTO 11008KT 8SM BKN017 BKN027 BKN033 22/19 A3020 RMK AO2 T02220189
Pressure 30.20 in
Visibility 8.0 miles
Clouds Mostly Cloudy 1700 ft
Mostly Cloudy 2700 ft
Mostly Cloudy 3300 ft
Dew Point 66 °F
Humidity 86%
Rainfall 0.00 in
Snow Depth Not available.
UV 0 out of 12
Pollen 9.00 out of 12
Air Quality Not available.
Flu Activity Not available.
SPECI KMPO 050002Z AUTO 11008KT 8SM BKN017 BKN027 BKN033 22/19 A3020 RMK AO2 T02220189

10-Day Weather Forecast

×

Almanac

Astronomy

Sep. 04, 2015 Rise Set
Actual Time
Civil Twilight
Nautical Twilight
Astronomical Twilight
Moon
Length of Visible Light
Length of Day
Tomorrow will be .
, % of the Moon is Illuminated

Today's Extremes

State Highs State Lows

Community

WunderPhotos

Upload Photos

1,852,363 photos uploaded!

WunderBlogs® & News

Nearby

Air Quality

  Air Quality AQ Index Pollutant
Not available.

Snow Depth

Station Depth Elevation

Earthquake Activity

City Distance Mag. Time & Date
Minimum magnitude displayed is 2.5.

Coastal Water Temperatures

Place Temperature

Stations

Nearby Weather Stations

Station Location Temp. Windchill Dew Point Humidity Wind Precip. Elev Updated Type